createdAt,value
2022-10-27T00:00:33.441Z,4.72
2022-10-27T00:03:00.148Z,3.70
2022-10-27T00:05:26.659Z,4.35
2022-10-27T00:07:53.267Z,3.80
2022-10-27T00:10:20.021Z,3.97
2022-10-27T00:12:46.616Z,3.60
2022-10-27T00:15:13.969Z,4.47
2022-10-27T00:17:40.446Z,4.85
2022-10-27T00:20:07.853Z,4.50
2022-10-27T00:22:34.692Z,4.70
2022-10-27T00:25:01.175Z,4.43
2022-10-27T00:27:28.397Z,4.00
2022-10-27T00:29:55.450Z,4.85
2022-10-27T00:32:21.916Z,4.75
2022-10-27T00:34:48.317Z,5.40
2022-10-27T00:37:14.772Z,3.90
2022-10-27T00:39:41.187Z,4.68
2022-10-27T00:42:11.987Z,4.05
2022-10-27T00:44:43.733Z,3.95
2022-10-27T00:47:10.103Z,4.13
2022-10-27T00:49:45.988Z,4.65
2022-10-27T00:52:20.891Z,5.05
2022-10-27T00:54:47.544Z,4.85
2022-10-27T00:57:14.238Z,4.57
2022-10-27T00:59:41.666Z,4.60
2022-10-27T01:02:10.164Z,4.32
2022-10-27T01:04:46.585Z,4.38
2022-10-27T01:07:16.061Z,4.85
2022-10-27T01:09:43.672Z,5.13
2022-10-27T01:12:10.179Z,6.18
2022-10-27T01:14:37.340Z,6.20
2022-10-27T01:17:14.278Z,6.13
2022-10-27T01:20:18.226Z,6.03
2022-10-27T01:22:59.455Z,7.28
2022-10-27T01:25:43.248Z,8.15
2022-10-27T01:28:43.037Z,8.27
2022-10-27T01:31:11.557Z,9.50
2022-10-27T01:33:49.680Z,9.60
2022-10-27T01:36:24.279Z,9.38
2022-10-27T01:39:16.115Z,10.32
2022-10-27T01:41:57.876Z,10.68
2022-10-27T01:44:40.979Z,9.98
2022-10-27T01:47:10.224Z,11.95
2022-10-27T01:49:38.191Z,11.23
2022-10-27T01:52:28.706Z,10.30
2022-10-27T01:54:57.749Z,11.48
2022-10-27T01:57:36.596Z,9.32
2022-10-27T02:00:06.380Z,10.30
2022-10-27T02:03:04.289Z,9.82
2022-10-27T02:06:10.347Z,9.68
2022-10-27T02:08:51.191Z,9.10
2022-10-27T02:11:17.660Z,8.73
2022-10-27T02:13:46.543Z,8.90
2022-10-27T02:16:23.072Z,8.98
2022-10-27T02:18:54.600Z,8.60
2022-10-27T02:23:48.222Z,8.10
2022-10-27T02:26:33.198Z,9.32
2022-10-27T02:29:03.696Z,8.43
2022-10-27T02:31:41.527Z,8.57
2022-10-27T02:34:09.267Z,8.60
2022-10-27T02:36:35.878Z,7.70
2022-10-27T02:39:02.489Z,7.80
2022-10-27T02:41:29.010Z,7.10
2022-10-27T02:43:55.434Z,6.97
2022-10-27T02:46:21.830Z,7.45
2022-10-27T02:48:48.290Z,7.15
2022-10-27T02:51:14.691Z,7.45
2022-10-27T02:53:41.114Z,7.25
2022-10-27T02:56:07.767Z,7.53
2022-10-27T02:58:35.186Z,6.90
2022-10-27T03:01:01.775Z,8.32
2022-10-27T03:03:28.312Z,8.20
2022-10-27T03:05:54.737Z,7.15
2022-10-27T03:08:21.222Z,8.50
2022-10-27T03:10:47.655Z,8.75
2022-10-27T03:13:14.069Z,9.05
2022-10-27T03:15:40.548Z,9.18
2022-10-27T03:18:07.048Z,9.55
2022-10-27T03:20:33.486Z,9.52
2022-10-27T03:22:59.921Z,8.98
2022-10-27T03:25:26.359Z,9.82
2022-10-27T03:27:52.833Z,8.35
2022-10-27T03:30:19.669Z,8.90
2022-10-27T03:32:48.645Z,9.85
2022-10-27T03:35:17.041Z,9.13
2022-10-27T03:37:44.099Z,9.70
2022-10-27T03:40:11.647Z,8.90
2022-10-27T03:42:42.444Z,9.45
2022-10-27T03:45:12.169Z,9.10
2022-10-27T03:47:38.887Z,7.95
2022-10-27T03:50:05.820Z,8.85
2022-10-27T03:52:33.329Z,9.00
2022-10-27T03:55:00.316Z,8.80
2022-10-27T03:57:26.856Z,9.85
2022-10-27T03:59:53.327Z,8.75
2022-10-27T04:02:19.787Z,8.32
2022-10-27T04:04:46.267Z,9.23
2022-10-27T04:07:12.666Z,9.48
2022-10-27T04:09:39.094Z,8.85
2022-10-27T04:12:05.709Z,10.18
2022-10-27T04:14:32.157Z,8.93
2022-10-27T04:16:58.593Z,8.70
2022-10-27T04:19:25.075Z,9.15
2022-10-27T04:21:51.555Z,8.40
2022-10-27T04:24:17.945Z,8.05
2022-10-27T04:26:44.390Z,8.40
2022-10-27T04:29:10.802Z,8.20
2022-10-27T04:31:37.259Z,8.05
2022-10-27T04:34:03.682Z,7.55
2022-10-27T04:36:30.188Z,7.90
2022-10-27T04:38:56.725Z,7.05
2022-10-27T04:41:23.232Z,8.75
2022-10-27T04:43:52.866Z,7.47
2022-10-27T04:46:19.319Z,6.85
2022-10-27T04:48:45.746Z,7.47
2022-10-27T04:51:12.180Z,8.02
2022-10-27T04:53:38.616Z,6.75
2022-10-27T04:56:05.461Z,6.45
2022-10-27T04:58:32.255Z,7.30
2022-10-27T05:00:58.732Z,5.90
2022-10-27T05:03:25.120Z,6.55
2022-10-27T05:05:51.604Z,5.55
2022-10-27T05:08:17.998Z,5.55
2022-10-27T05:10:45.245Z,5.85
2022-10-27T05:13:11.672Z,5.15
2022-10-27T05:15:38.126Z,5.57
2022-10-27T05:18:06.849Z,4.50
2022-10-27T05:20:35.925Z,4.40
2022-10-27T05:23:02.325Z,4.20
2022-10-27T05:25:29.008Z,3.95
2022-10-27T05:28:06.055Z,4.18
2022-10-27T05:30:32.528Z,3.50
2022-10-27T05:32:58.961Z,3.40
2022-10-27T05:35:25.488Z,3.50
2022-10-27T05:37:52.208Z,3.38
2022-10-27T05:40:19.065Z,3.53
2022-10-27T05:42:50.257Z,3.38
2022-10-27T05:47:43.255Z,2.88
2022-10-27T05:50:09.992Z,2.90
2022-10-27T05:52:36.440Z,3.10
2022-10-27T05:55:03.272Z,2.90
2022-10-27T05:57:29.705Z,2.80
2022-10-27T05:59:56.176Z,2.83
2022-10-27T06:02:22.683Z,2.92
2022-10-27T06:04:49.156Z,2.40
2022-10-27T06:07:15.641Z,2.70
2022-10-27T06:09:42.169Z,3.03
2022-10-27T06:12:08.596Z,2.67
2022-10-27T06:14:35.015Z,2.63
2022-10-27T06:17:01.430Z,3.03
2022-10-27T06:19:27.844Z,3.25
2022-10-27T06:21:54.265Z,2.30
2022-10-27T06:24:20.765Z,2.13
2022-10-27T06:26:47.214Z,2.20
2022-10-27T06:29:13.646Z,2.60
2022-10-27T06:31:40.232Z,2.45
2022-10-27T06:34:06.642Z,2.10
2022-10-27T06:36:33.131Z,1.95
2022-10-27T06:38:59.816Z,2.00
2022-10-27T06:41:26.306Z,2.25
2022-10-27T06:43:52.790Z,2.22
2022-10-27T06:46:19.698Z,1.90
2022-10-27T06:48:46.123Z,2.40
2022-10-27T06:51:12.544Z,1.77
2022-10-27T06:53:38.915Z,2.35
2022-10-27T06:56:05.519Z,2.50
2022-10-27T06:58:31.944Z,2.13
2022-10-27T07:01:00.097Z,1.98
2022-10-27T07:03:26.515Z,2.47
2022-10-27T07:05:52.944Z,1.65
2022-10-27T07:08:19.363Z,2.58
2022-10-27T07:10:45.951Z,1.77
2022-10-27T07:13:12.367Z,1.70
2022-10-27T07:15:38.802Z,1.98
2022-10-27T07:18:07.469Z,1.58
2022-10-27T07:20:35.680Z,2.20
2022-10-27T07:23:03.230Z,2.00
2022-10-27T07:25:31.638Z,1.90
2022-10-27T07:27:58.393Z,1.80
2022-10-27T07:30:28.594Z,2.22
2022-10-27T07:32:55.933Z,1.83
2022-10-27T07:35:22.873Z,2.33
2022-10-27T07:37:49.999Z,1.80
2022-10-27T07:40:18.763Z,1.73
2022-10-27T07:42:51.024Z,3.03
2022-10-27T07:45:20.700Z,1.98
2022-10-27T07:47:49.844Z,1.90
2022-10-27T07:50:17.945Z,2.10
2022-10-27T07:52:52.317Z,2.17
2022-10-27T07:55:22.788Z,2.03
2022-10-27T07:57:58.602Z,3.05
2022-10-27T08:00:25.262Z,3.35
2022-10-27T08:02:51.902Z,1.90
2022-10-27T08:05:18.706Z,1.80
2022-10-27T08:07:45.195Z,1.90
2022-10-27T08:10:11.867Z,2.33
2022-10-27T08:12:45.001Z,1.90
2022-10-27T08:15:12.209Z,1.77
2022-10-27T08:17:39.962Z,2.00
2022-10-27T08:20:08.672Z,2.13
2022-10-27T08:22:35.342Z,1.70
2022-10-27T08:25:04.729Z,2.03
2022-10-27T08:27:33.947Z,2.20
2022-10-27T08:30:00.407Z,1.63
2022-10-27T08:32:27.234Z,2.30
2022-10-27T08:34:53.697Z,2.33
2022-10-27T08:37:20.297Z,1.83
2022-10-27T08:39:46.711Z,2.28
2022-10-27T08:42:30.771Z,2.03
2022-10-27T08:45:05.333Z,2.30
2022-10-27T08:47:31.841Z,2.20
2022-10-27T08:50:14.256Z,2.70
2022-10-27T08:52:52.906Z,2.78
2022-10-27T08:55:27.030Z,2.40
2022-10-27T08:58:09.784Z,2.25
2022-10-27T09:00:50.068Z,2.78
2022-10-27T09:03:25.432Z,2.58
2022-10-27T09:06:06.121Z,2.30
2022-10-27T09:09:07.387Z,2.57
2022-10-27T09:11:58.996Z,2.10
2022-10-27T09:14:49.776Z,2.38
2022-10-27T09:17:25.647Z,2.27
2022-10-27T09:20:30.896Z,2.03
2022-10-27T09:23:00.050Z,1.90
2022-10-27T09:25:27.462Z,1.60
2022-10-27T09:27:55.910Z,1.77
2022-10-27T09:30:22.778Z,1.88
2022-10-27T09:32:51.521Z,2.58
2022-10-27T09:35:23.501Z,1.75
2022-10-27T09:37:51.132Z,1.92
2022-10-27T09:40:20.745Z,2.63
2022-10-27T09:42:50.782Z,1.98
2022-10-27T09:45:20.676Z,2.00
2022-10-27T09:47:51.283Z,2.30
2022-10-27T09:50:22.881Z,2.80
2022-10-27T09:52:50.246Z,2.95
2022-10-27T09:55:18.187Z,1.90
2022-10-27T09:57:47.701Z,2.17
2022-10-27T10:00:17.117Z,2.15
2022-10-27T10:05:36.784Z,2.40
2022-10-27T10:08:21.947Z,2.38
2022-10-27T10:11:31.469Z,3.17
2022-10-27T10:14:00.468Z,2.42
2022-10-27T10:16:28.854Z,2.50
2022-10-27T10:19:07.453Z,2.72
2022-10-27T10:21:46.993Z,2.60
2022-10-27T10:24:18.607Z,2.00
2022-10-27T10:26:47.930Z,2.28
2022-10-27T10:29:21.475Z,2.38
2022-10-27T10:31:47.938Z,2.67
2022-10-27T10:34:32.032Z,2.38
2022-10-27T10:36:58.842Z,2.50
2022-10-27T10:39:34.781Z,2.78
2022-10-27T10:42:10.084Z,2.42
2022-10-27T10:44:37.926Z,2.88
2022-10-27T10:47:06.222Z,2.42
2022-10-27T10:49:37.277Z,2.35
2022-10-27T10:52:15.524Z,1.95
2022-10-27T10:54:43.025Z,1.98
2022-10-27T10:57:46.643Z,2.33
2022-10-27T11:00:18.587Z,2.28
2022-10-27T11:03:00.278Z,2.20
2022-10-27T11:05:35.194Z,2.47
2022-10-27T11:08:04.125Z,1.85
2022-10-27T11:10:37.578Z,2.63
2022-10-27T11:13:19.400Z,2.63
2022-10-27T11:15:54.554Z,2.58
2022-10-27T11:18:20.946Z,2.03
2022-10-27T11:20:52.927Z,2.63
2022-10-27T11:23:38.365Z,2.10
2022-10-27T11:26:05.577Z,2.63
2022-10-27T11:28:53.443Z,1.80
2022-10-27T11:31:46.185Z,1.92
2022-10-27T11:34:26.396Z,1.95
2022-10-27T11:37:23.313Z,2.30
2022-10-27T11:39:59.175Z,2.28
2022-10-27T11:42:54.381Z,2.33
2022-10-27T11:45:28.592Z,2.20
2022-10-27T11:48:02.618Z,2.10
2022-10-27T11:50:40.658Z,2.08
2022-10-27T11:53:12.400Z,1.70
2022-10-27T11:56:03.235Z,2.58
2022-10-27T11:58:45.462Z,1.95
2022-10-27T12:01:14.665Z,1.90
2022-10-27T12:04:06.542Z,2.35
2022-10-27T12:06:42.558Z,1.65
2022-10-27T12:09:45.766Z,2.35
2022-10-27T12:12:24.778Z,1.65
2022-10-27T12:15:30.583Z,2.05
2022-10-27T12:18:12.595Z,1.90
2022-10-27T12:20:50.322Z,1.52
2022-10-27T12:23:24.662Z,2.20
2022-10-27T12:26:07.423Z,2.20
2022-10-27T12:28:35.794Z,1.80
2022-10-27T12:31:07.352Z,2.08
2022-10-27T12:33:40.910Z,1.88
2022-10-27T12:36:14.653Z,1.60
2022-10-27T12:39:27.824Z,1.60
2022-10-27T12:42:15.962Z,1.25
2022-10-27T12:44:48.084Z,1.83
2022-10-27T12:47:26.411Z,1.80
2022-10-27T12:50:11.170Z,2.60
2022-10-27T12:52:56.378Z,1.40
2022-10-27T12:55:32.711Z,1.77
2022-10-27T12:58:03.458Z,1.70
2022-10-27T13:00:59.860Z,1.80
2022-10-27T13:03:58.262Z,1.38
2022-10-27T13:06:43.455Z,1.55
2022-10-27T13:09:32.260Z,1.80
2022-10-27T13:12:20.722Z,1.92
2022-10-27T13:15:02.493Z,1.67
2022-10-27T13:17:58.706Z,1.70
2022-10-27T13:20:38.388Z,1.95
2022-10-27T13:23:22.973Z,1.58
2022-10-27T13:26:27.613Z,1.70
2022-10-27T13:29:34.121Z,1.70
2022-10-27T13:32:19.743Z,1.33
2022-10-27T13:35:01.171Z,1.65
2022-10-27T13:37:47.624Z,1.33
2022-10-27T13:40:20.110Z,1.65
2022-10-27T13:42:47.629Z,1.35
2022-10-27T13:45:29.335Z,1.70
2022-10-27T13:48:07.918Z,1.58
2022-10-27T13:50:36.478Z,2.47
2022-10-27T13:53:14.890Z,1.50
2022-10-27T13:55:51.791Z,1.60
2022-10-27T13:58:18.185Z,2.40
2022-10-27T14:01:30.054Z,2.28
2022-10-27T14:04:11.590Z,1.40
2022-10-27T14:06:41.399Z,1.05
2022-10-27T14:09:16.764Z,1.42
2022-10-27T14:11:47.855Z,1.60
2022-10-27T14:16:50.710Z,1.67
2022-10-27T14:19:32.688Z,1.05
2022-10-27T14:21:59.667Z,1.63
2022-10-27T14:24:49.846Z,1.20
2022-10-27T14:27:18.690Z,2.05
2022-10-27T14:29:45.471Z,1.23
2022-10-27T14:32:19.147Z,1.45
2022-10-27T14:34:46.116Z,1.63
2022-10-27T14:37:17.806Z,1.70
2022-10-27T14:39:47.110Z,1.27
2022-10-27T14:42:22.178Z,1.10
2022-10-27T14:44:56.233Z,1.20
2022-10-27T14:47:23.962Z,1.60
2022-10-27T14:50:01.830Z,1.50
2022-10-27T14:52:50.414Z,1.98
2022-10-27T14:55:19.083Z,1.40
2022-10-27T14:57:50.066Z,1.63
2022-10-27T15:03:08.164Z,1.45
2022-10-27T15:05:40.207Z,1.35
2022-10-27T15:08:14.372Z,1.55
2022-10-27T15:10:43.779Z,1.38
2022-10-27T15:13:20.009Z,2.38
2022-10-27T15:15:48.649Z,2.97
2022-10-27T15:18:23.018Z,1.75
2022-10-27T15:20:50.702Z,2.22
2022-10-27T15:23:18.107Z,2.40
2022-10-27T15:25:47.886Z,1.90
2022-10-27T15:28:15.889Z,1.45
2022-10-27T15:30:43.477Z,1.70
2022-10-27T15:33:30.460Z,1.88
2022-10-27T15:36:09.095Z,1.73
2022-10-27T15:38:35.871Z,2.60
2022-10-27T15:41:17.353Z,1.42
2022-10-27T15:43:50.009Z,1.58
2022-10-27T15:46:39.505Z,1.25
2022-10-27T15:49:28.465Z,1.73
2022-10-27T15:52:02.795Z,1.90
2022-10-27T15:54:37.330Z,1.50
2022-10-27T15:57:25.791Z,1.50
2022-10-27T16:00:18.920Z,2.03
2022-10-27T16:02:53.927Z,2.00
2022-10-27T16:05:29.719Z,1.67
2022-10-27T16:08:00.722Z,1.63
2022-10-27T16:10:28.034Z,1.77
2022-10-27T16:12:55.532Z,1.70
2022-10-27T16:15:24.823Z,1.50
2022-10-27T16:17:56.730Z,1.70
2022-10-27T16:20:26.059Z,1.65
2022-10-27T16:22:52.872Z,1.77
2022-10-27T16:25:23.840Z,1.63
2022-10-27T16:27:50.340Z,1.73
2022-10-27T16:30:19.852Z,2.17
2022-10-27T16:32:48.636Z,1.63
2022-10-27T16:35:17.105Z,1.50
2022-10-27T16:37:43.616Z,1.80
2022-10-27T16:40:14.762Z,1.73
2022-10-27T16:42:51.127Z,2.45
2022-10-27T16:45:20.430Z,1.88
2022-10-27T16:47:49.867Z,1.80
2022-10-27T16:50:16.998Z,2.13
2022-10-27T16:52:43.594Z,1.98
2022-10-27T16:55:11.941Z,2.15
2022-10-27T16:57:41.008Z,2.17
2022-10-27T17:00:12.240Z,2.30
2022-10-27T17:02:38.758Z,2.53
2022-10-27T17:05:06.376Z,2.40
2022-10-27T17:07:33.430Z,2.30
2022-10-27T17:09:59.818Z,2.40
2022-10-27T17:12:27.677Z,2.60
2022-10-27T17:14:54.102Z,2.53
2022-10-27T17:17:20.614Z,1.98
2022-10-27T17:19:47.208Z,2.35
2022-10-27T17:22:13.805Z,2.40
2022-10-27T17:24:40.247Z,2.58
2022-10-27T17:27:06.724Z,2.33
2022-10-27T17:29:33.136Z,3.45
2022-10-27T17:31:59.581Z,2.65
2022-10-27T17:34:25.961Z,3.08
2022-10-27T17:36:52.427Z,2.60
2022-10-27T17:39:18.813Z,2.20
2022-10-27T17:41:45.249Z,2.50
2022-10-27T17:44:11.741Z,2.63
2022-10-27T17:46:38.222Z,2.65
2022-10-27T17:49:04.654Z,3.30
2022-10-27T17:51:32.864Z,2.35
2022-10-27T17:54:00.782Z,2.63
2022-10-27T17:56:31.199Z,2.78
2022-10-27T17:58:58.403Z,2.87
2022-10-27T18:01:27.682Z,2.67
2022-10-27T18:03:55.947Z,2.78
2022-10-27T18:06:23.716Z,2.67
2022-10-27T18:08:53.750Z,2.47
2022-10-27T18:11:23.372Z,2.50
2022-10-27T18:13:51.417Z,2.75
2022-10-27T18:16:24.296Z,2.90
2022-10-27T18:18:53.055Z,2.75
2022-10-27T18:21:20.049Z,2.30
2022-10-27T18:23:50.927Z,3.05
2022-10-27T18:26:17.994Z,2.92
2022-10-27T18:28:45.813Z,2.38
2022-10-27T18:31:13.132Z,3.13
2022-10-27T18:33:40.497Z,2.22
2022-10-27T18:36:12.408Z,2.92
2022-10-27T18:38:39.080Z,2.65
2022-10-27T18:41:08.617Z,2.70
2022-10-27T18:43:35.148Z,3.03
2022-10-27T18:46:04.096Z,2.65
2022-10-27T18:48:30.831Z,2.92
2022-10-27T18:50:59.468Z,3.33
2022-10-27T18:53:26.559Z,2.97
2022-10-27T18:55:53.717Z,2.85
2022-10-27T18:58:20.179Z,2.88
2022-10-27T19:00:46.781Z,3.10
2022-10-27T19:03:13.279Z,3.20
2022-10-27T19:05:39.676Z,2.70
2022-10-27T19:08:06.153Z,3.20
2022-10-27T19:10:32.851Z,4.22
2022-10-27T19:12:59.477Z,3.33
2022-10-27T19:15:25.917Z,3.00
2022-10-27T19:17:53.160Z,2.85
2022-10-27T19:20:20.027Z,3.10
2022-10-27T19:22:46.483Z,3.50
2022-10-27T19:25:12.926Z,3.80
2022-10-27T19:27:39.438Z,4.57
2022-10-27T19:30:06.368Z,3.45
2022-10-27T19:32:34.705Z,3.78
2022-10-27T19:35:01.489Z,3.38
2022-10-27T19:37:27.968Z,3.83
2022-10-27T19:39:54.374Z,3.85
2022-10-27T19:42:20.940Z,4.20
2022-10-27T19:44:49.535Z,4.13
2022-10-27T19:47:16.038Z,4.65
2022-10-27T19:49:42.452Z,4.47
2022-10-27T19:52:08.961Z,3.78
2022-10-27T19:54:35.387Z,3.70
2022-10-27T19:57:01.800Z,4.18
2022-10-27T19:59:28.235Z,4.68
2022-10-27T20:01:54.834Z,3.70
2022-10-27T20:04:21.485Z,5.18
2022-10-27T20:06:48.508Z,5.43
2022-10-27T20:09:20.630Z,4.60
2022-10-27T20:11:47.820Z,5.03
2022-10-27T20:14:15.045Z,4.07
2022-10-27T20:16:43.895Z,3.88
2022-10-27T20:19:18.796Z,3.75
2022-10-27T20:21:45.836Z,3.75
2022-10-27T20:24:12.592Z,3.63
2022-10-27T20:26:40.812Z,3.90
2022-10-27T20:29:07.332Z,4.03
2022-10-27T20:31:34.078Z,4.35
2022-10-27T20:34:00.529Z,4.85
2022-10-27T20:36:26.970Z,4.07
2022-10-27T20:38:53.483Z,4.60
2022-10-27T20:41:21.948Z,5.53
2022-10-27T20:43:52.069Z,4.03
2022-10-27T20:46:18.512Z,3.85
2022-10-27T20:48:44.939Z,4.07
2022-10-27T20:51:12.834Z,4.43
2022-10-27T20:53:40.422Z,4.50
2022-10-27T20:56:12.178Z,4.00
2022-10-27T20:58:38.639Z,4.03
2022-10-27T21:01:28.727Z,4.75
2022-10-27T21:04:02.318Z,4.25
2022-10-27T21:06:30.690Z,4.30
2022-10-27T21:08:59.061Z,4.05
2022-10-27T21:11:27.177Z,4.32
2022-10-27T21:13:55.783Z,4.57
2022-10-27T21:16:23.414Z,5.45
2022-10-27T21:18:51.919Z,4.93
2022-10-27T21:21:19.573Z,5.22
2022-10-27T21:23:46.371Z,5.93
2022-10-27T21:26:13.447Z,4.85
2022-10-27T21:28:40.439Z,5.78
2022-10-27T21:31:12.364Z,4.90
2022-10-27T21:33:40.252Z,5.38
2022-10-27T21:36:07.800Z,5.80
2022-10-27T21:38:34.185Z,5.10
2022-10-27T21:41:00.816Z,5.38
2022-10-27T21:43:28.007Z,4.97
2022-10-27T21:45:56.126Z,5.50
2022-10-27T21:48:23.504Z,5.20
2022-10-27T21:50:51.420Z,5.30
2022-10-27T21:53:19.075Z,5.25
2022-10-27T21:56:06.543Z,5.80
2022-10-27T21:58:35.043Z,5.20
2022-10-27T22:01:07.430Z,5.15
2022-10-27T22:03:34.609Z,5.95
2022-10-27T22:06:01.035Z,4.93
2022-10-27T22:08:27.627Z,5.13
2022-10-27T22:10:54.176Z,6.82
2022-10-27T22:13:20.873Z,4.72
2022-10-27T22:15:47.340Z,5.22
2022-10-27T22:18:13.775Z,5.40
2022-10-27T22:20:40.278Z,5.57
2022-10-27T22:23:06.805Z,6.55
2022-10-27T22:25:33.265Z,5.18
2022-10-27T22:27:59.722Z,6.57
2022-10-27T22:30:26.140Z,5.78
2022-10-27T22:32:52.769Z,5.50
2022-10-27T22:35:19.343Z,5.68
2022-10-27T22:37:45.818Z,5.32
2022-10-27T22:40:12.452Z,5.53
2022-10-27T22:42:38.863Z,6.05
2022-10-27T22:45:05.547Z,6.00
2022-10-27T22:47:31.984Z,6.57
2022-10-27T22:49:58.392Z,7.00
2022-10-27T22:52:24.852Z,6.43
2022-10-27T22:54:51.248Z,6.65
2022-10-27T22:57:17.678Z,6.50
2022-10-27T22:59:44.165Z,6.70
2022-10-27T23:02:10.741Z,6.75
2022-10-27T23:04:37.257Z,7.07
2022-10-27T23:07:03.749Z,7.07
2022-10-27T23:09:30.185Z,6.60
2022-10-27T23:11:56.666Z,6.70
2022-10-27T23:14:23.121Z,6.78
2022-10-27T23:16:49.619Z,6.40
2022-10-27T23:19:16.171Z,7.10
2022-10-27T23:21:42.761Z,6.25
2022-10-27T23:24:09.401Z,7.78
2022-10-27T23:26:38.523Z,7.65
2022-10-27T23:29:07.800Z,7.57
2022-10-27T23:31:34.983Z,6.65
2022-10-27T23:34:03.626Z,7.45
2022-10-27T23:36:31.891Z,7.47
2022-10-27T23:38:58.898Z,7.25
2022-10-27T23:41:25.567Z,7.47
2022-10-27T23:43:54.476Z,7.25
2022-10-27T23:46:22.328Z,7.93
2022-10-27T23:48:48.859Z,7.65
2022-10-27T23:51:15.687Z,7.50
2022-10-27T23:53:42.267Z,7.63
2022-10-27T23:56:11.034Z,8.50
2022-10-27T23:58:41.531Z,7.20
